Time;durP1;ratioP1;P1;durP2;ratioP2;P2;SDS_P1;SDS_P2;PMS_P1;PMS_P2;Temp;Humidity;BMP_temperature;BMP_pressure;BME280_temperature;BME280_humidity;BME280_pressure;Samples;Min_cycle;Max_cycle;Signal;HPM_P1;HPM_P2
2023/07/30 00:02:20;;;;;;;4.13;2.57;;;17.50;99.90;;;;;;6152991;23;20197;-74
2023/07/30 00:05:09;;;;;;;3.90;2.37;;;17.60;99.90;;;;;;6152981;23;20192;-74
2023/07/30 00:07:56;;;;;;;3.93;2.30;;;17.60;99.90;;;;;;6153290;23;20626;-74
2023/07/30 00:10:43;;;;;;;5.87;2.40;;;17.60;99.90;;;;;;6153153;23;20183;-74
2023/07/30 00:13:30;;;;;;;3.97;2.27;;;17.70;99.90;;;;;;6153001;23;20191;-74
2023/07/30 00:16:18;;;;;;;3.70;2.20;;;17.70;99.90;;;;;;6154034;23;20186;-74
2023/07/30 00:19:05;;;;;;;4.73;2.27;;;17.80;99.90;;;;;;6151335;23;20189;-74
2023/07/30 00:21:53;;;;;;;6.40;2.20;;;17.80;99.90;;;;;;6152190;23;20197;-74
2023/07/30 00:24:41;;;;;;;7.00;2.43;;;17.80;99.90;;;;;;6152149;23;20691;-74
2023/07/30 00:27:28;;;;;;;5.43;2.10;;;17.80;99.90;;;;;;6151432;23;20187;-74
2023/07/30 00:30:15;;;;;;;7.77;2.20;;;17.80;99.90;;;;;;6152721;23;20525;-74
2023/07/30 00:33:02;;;;;;;4.67;2.27;;;17.80;99.90;;;;;;6152390;23;20640;-74
2023/07/30 00:35:52;;;;;;;5.87;2.50;;;17.80;99.90;;;;;;6151933;23;20185;-74
2023/07/30 00:38:40;;;;;;;4.63;2.20;;;17.80;99.90;;;;;;6151892;23;20233;-74
2023/07/30 00:41:28;;;;;;;4.43;2.23;;;17.80;99.90;;;;;;6151589;23;20205;-74
2023/07/30 00:44:15;;;;;;;3.90;2.10;;;17.80;99.90;;;;;;6152521;23;20180;-75
2023/07/30 00:47:03;;;;;;;3.90;2.40;;;17.90;99.90;;;;;;6152148;23;20185;-74
2023/07/30 00:49:50;;;;;;;4.90;2.37;;;17.90;99.90;;;;;;6152031;23;20521;-74
2023/07/30 00:52:37;;;;;;;4.30;2.60;;;17.90;99.90;;;;;;6152185;23;20221;-74
2023/07/30 00:55:26;;;;;;;2.77;2.27;;;17.90;99.90;;;;;;6151793;23;20648;-74
2023/07/30 00:58:13;;;;;;;5.10;2.77;;;17.90;99.90;;;;;;6151780;23;20207;-74
2023/07/30 01:01:00;;;;;;;7.30;2.73;;;17.90;99.90;;;;;;6151999;23;20211;-74
2023/07/30 01:03:47;;;;;;;4.97;2.30;;;17.90;99.90;;;;;;6151827;23;20185;-74
2023/07/30 01:06:35;;;;;;;4.00;2.60;;;17.90;99.90;;;;;;6151896;23;20179;-74
2023/07/30 01:09:22;;;;;;;3.73;2.50;;;17.90;99.90;;;;;;6151758;23;20192;-74
2023/07/30 01:12:11;;;;;;;5.60;2.50;;;17.80;99.90;;;;;;6152256;23;20308;-74
2023/07/30 01:14:58;;;;;;;8.57;2.50;;;17.90;99.90;;;;;;6150867;23;20180;-74
2023/07/30 01:17:45;;;;;;;5.70;2.83;;;17.80;99.90;;;;;;6154176;23;20185;-73
2023/07/30 01:20:32;;;;;;;3.93;2.53;;;17.80;99.90;;;;;;6154123;23;20188;-74
2023/07/30 01:23:21;;;;;;;5.90;2.83;;;17.80;99.90;;;;;;6153263;23;20533;-74
2023/07/30 01:26:10;;;;;;;4.43;2.60;;;17.80;99.90;;;;;;6153897;23;20275;-74
2023/07/30 01:28:57;;;;;;;6.23;3.00;;;17.80;99.90;;;;;;6153768;23;20264;-74
2023/07/30 01:31:45;;;;;;;10.17;2.70;;;17.80;99.90;;;;;;6154185;23;20185;-73
2023/07/30 01:34:32;;;;;;;5.13;2.60;;;17.70;99.90;;;;;;6154217;23;20189;-74
2023/07/30 01:37:19;;;;;;;5.13;2.53;;;17.70;99.90;;;;;;6154328;23;20237;-74
2023/07/30 01:40:09;;;;;;;4.20;2.70;;;17.70;99.90;;;;;;6155403;23;20190;-73
2023/07/30 01:42:56;;;;;;;4.37;2.70;;;17.70;99.90;;;;;;6153476;23;20217;-74
2023/07/30 01:45:43;;;;;;;6.87;2.90;;;17.80;99.90;;;;;;6153917;23;20190;-74
2023/07/30 01:48:30;;;;;;;5.93;2.40;;;17.70;99.90;;;;;;6154534;23;20643;-74
2023/07/30 01:51:18;;;;;;;6.50;3.07;;;17.70;99.90;;;;;;6153868;23;20179;-74
2023/07/30 01:54:05;;;;;;;5.83;2.80;;;17.60;99.90;;;;;;6153153;23;20188;-74
2023/07/30 01:56:54;;;;;;;4.87;2.70;;;17.60;99.90;;;;;;6153199;23;20196;-74
2023/07/30 01:59:41;;;;;;;5.50;2.53;;;17.60;99.90;;;;;;6153800;23;20909;-74
2023/07/30 02:02:28;;;;;;;4.07;2.73;;;17.70;99.90;;;;;;6153965;23;20280;-74
2023/07/30 02:05:16;;;;;;;5.00;2.60;;;17.70;99.90;;;;;;6154084;23;20185;-74
2023/07/30 02:08:03;;;;;;;3.57;2.43;;;17.60;99.90;;;;;;6153045;23;20267;-73
2023/07/30 02:10:56;;;;;;;5.73;3.07;;;17.60;99.90;;;;;;6153969;23;20186;-73
2023/07/30 02:13:45;;;;;;;6.77;3.13;;;17.60;99.90;;;;;;6153649;23;20188;-74
2023/07/30 02:16:32;;;;;;;4.73;2.83;;;17.60;99.90;;;;;;6154050;23;20181;-73
2023/07/30 02:19:19;;;;;;;4.97;2.60;;;17.50;99.90;;;;;;6152951;23;20186;-74
2023/07/30 02:22:07;;;;;;;4.83;2.60;;;17.50;99.90;;;;;;6153765;23;20264;-74
2023/07/30 02:24:57;;;;;;;6.00;2.93;;;17.50;99.90;;;;;;6150581;23;21014;-74
2023/07/30 02:27:44;;;;;;;7.47;3.00;;;17.40;99.90;;;;;;6152994;23;20192;-73
2023/07/30 02:30:33;;;;;;;6.60;2.90;;;17.40;99.90;;;;;;6153797;23;20234;-74
2023/07/30 02:33:20;;;;;;;5.60;2.30;;;17.40;99.90;;;;;;6153305;23;20178;-74
2023/07/30 02:36:08;;;;;;;4.27;2.40;;;17.40;99.90;;;;;;6153246;23;20193;-74
2023/07/30 02:38:55;;;;;;;3.90;2.20;;;17.40;99.90;;;;;;6152898;23;20254;-74
2023/07/30 02:41:42;;;;;;;3.73;2.27;;;17.30;99.90;;;;;;6153679;23;20181;-74
2023/07/30 02:44:29;;;;;;;4.10;2.20;;;17.30;99.90;;;;;;6153340;23;20182;-74
2023/07/30 02:47:18;;;;;;;3.17;1.90;;;17.20;99.90;;;;;;6153259;23;20628;-73
2023/07/30 02:50:06;;;;;;;3.37;2.13;;;17.10;99.90;;;;;;6152800;23;20190;-73
2023/07/30 02:52:54;;;;;;;6.87;2.10;;;17.00;99.90;;;;;;6152808;23;20187;-73
2023/07/30 02:55:41;;;;;;;2.90;1.60;;;17.00;99.90;;;;;;6153059;23;20192;-73
2023/07/30 02:58:28;;;;;;;5.17;1.93;;;17.00;99.90;;;;;;6153258;23;20195;-72
2023/07/30 03:01:16;;;;;;;7.50;1.63;;;17.00;99.90;;;;;;6153062;23;20194;-73
2023/07/30 03:04:05;;;;;;;3.30;1.60;;;16.90;99.90;;;;;;6152767;23;20261;-73
2023/07/30 03:06:52;;;;;;;1.63;1.40;;;16.90;99.90;;;;;;6153287;23;20182;-73
2023/07/30 03:09:39;;;;;;;3.17;1.70;;;16.90;99.90;;;;;;6153218;23;20633;-73
2023/07/30 03:12:26;;;;;;;3.70;1.90;;;16.90;99.90;;;;;;6153730;23;20188;-73
2023/07/30 03:15:14;;;;;;;2.83;1.70;;;16.80;99.90;;;;;;6153064;23;20183;-73
2023/07/30 03:18:01;;;;;;;6.10;1.80;;;16.80;99.90;;;;;;6152826;23;20187;-73
2023/07/30 03:20:50;;;;;;;3.33;1.73;;;16.70;99.90;;;;;;6152953;23;20184;-73
2023/07/30 03:23:37;;;;;;;3.50;1.83;;;16.60;99.90;;;;;;6152320;23;20281;-73
2023/07/30 03:26:24;;;;;;;3.00;1.57;;;16.60;99.90;;;;;;6153292;23;20186;-73
2023/07/30 03:29:11;;;;;;;3.33;1.60;;;16.60;99.90;;;;;;6152602;23;20615;-73
2023/07/30 03:31:59;;;;;;;2.20;1.60;;;16.60;99.90;;;;;;6153273;23;20209;-73
2023/07/30 03:34:46;;;;;;;3.30;1.80;;;16.60;99.90;;;;;;6153020;23;20182;-73
2023/07/30 03:37:34;;;;;;;2.70;1.50;;;16.50;99.90;;;;;;6152367;23;20214;-73
2023/07/30 03:40:21;;;;;;;8.37;1.50;;;16.50;99.90;;;;;;6152340;23;20267;-73
2023/07/30 03:43:09;;;;;;;5.13;1.60;;;16.50;99.90;;;;;;6153406;23;20196;-73
2023/07/30 03:45:56;;;;;;;4.47;1.70;;;16.40;99.90;;;;;;6152738;23;20184;-73
2023/07/30 03:48:43;;;;;;;4.07;1.60;;;16.40;99.90;;;;;;6153835;23;20526;-73
2023/07/30 03:51:30;;;;;;;5.30;1.63;;;16.30;99.90;;;;;;6153679;23;20182;-73
2023/07/30 03:54:19;;;;;;;5.23;1.63;;;16.40;99.90;;;;;;6153856;23;20206;-73
2023/07/30 03:57:06;;;;;;;4.27;1.27;;;16.40;99.90;;;;;;6153285;23;20637;-73
2023/07/30 03:59:53;;;;;;;5.37;1.47;;;16.30;99.90;;;;;;6152926;23;20183;-72
2023/07/30 04:02:41;;;;;;;4.73;1.80;;;16.30;99.90;;;;;;6151761;23;20234;-73
2023/07/30 04:05:28;;;;;;;3.47;1.77;;;16.20;99.90;;;;;;6152673;23;20190;-73
2023/07/30 04:08:16;;;;;;;2.53;1.60;;;16.20;99.90;;;;;;6153185;23;20222;-72
2023/07/30 04:11:04;;;;;;;3.63;1.73;;;16.20;99.90;;;;;;6152021;23;20218;-73
2023/07/30 04:13:52;;;;;;;5.70;2.00;;;16.10;99.90;;;;;;6152769;23;20250;-73
2023/07/30 04:16:39;;;;;;;4.87;1.70;;;16.20;99.90;;;;;;6152520;23;20233;-73
2023/07/30 04:19:26;;;;;;;3.53;1.87;;;16.20;99.90;;;;;;6153504;23;20642;-73
2023/07/30 04:22:13;;;;;;;2.80;1.67;;;16.30;99.90;;;;;;6153471;23;20187;-73
2023/07/30 04:25:00;;;;;;;4.53;1.90;;;16.30;99.90;;;;;;6153183;23;20179;-73
2023/07/30 04:27:49;;;;;;;7.50;2.00;;;16.40;99.90;;;;;;6153418;23;20189;-73
2023/07/30 04:30:36;;;;;;;5.40;2.20;;;16.50;99.90;;;;;;6153506;23;20264;-73
2023/07/30 04:33:23;;;;;;;4.43;1.93;;;16.50;99.90;;;;;;6152583;23;20191;-73
2023/07/30 04:36:11;;;;;;;3.23;1.80;;;16.60;99.90;;;;;;6152371;23;20218;-73
2023/07/30 04:38:58;;;;;;;3.07;1.80;;;16.60;99.90;;;;;;6151701;23;20233;-73
2023/07/30 04:41:45;;;;;;;3.33;2.00;;;16.70;99.90;;;;;;6151712;23;20183;-73
2023/07/30 04:44:34;;;;;;;5.90;2.30;;;16.80;99.90;;;;;;6152036;23;20642;-73
2023/07/30 04:47:21;;;;;;;3.73;2.20;;;16.80;99.90;;;;;;6152675;23;20213;-73
2023/07/30 04:50:08;;;;;;;5.73;2.10;;;16.80;99.90;;;;;;6150946;23;20190;-73
2023/07/30 04:52:56;;;;;;;3.80;2.23;;;16.80;99.90;;;;;;6152992;23;20269;-73
2023/07/30 04:55:43;;;;;;;5.07;1.93;;;16.80;99.90;;;;;;6152941;23;20193;-73
2023/07/30 04:58:30;;;;;;;3.60;1.87;;;16.90;99.90;;;;;;6151581;23;20183;-73
2023/07/30 05:01:18;;;;;;;5.63;1.97;;;16.90;99.90;;;;;;6153165;23;20179;-73
2023/07/30 05:04:06;;;;;;;4.70;2.10;;;16.80;99.90;;;;;;6151766;23;20203;-73
2023/07/30 05:06:53;;;;;;;4.13;1.93;;;16.90;99.90;;;;;;6151030;23;20560;-73
2023/07/30 05:09:40;;;;;;;2.93;1.60;;;17.00;99.90;;;;;;6152483;23;20190;-73
2023/07/30 05:12:27;;;;;;;3.53;1.70;;;17.10;99.90;;;;;;6152255;23;20179;-73
2023/07/30 05:15:15;;;;;;;2.30;1.67;;;17.10;99.90;;;;;;6152594;23;20182;-72
2023/07/30 05:18:03;;;;;;;3.33;1.80;;;17.20;99.90;;;;;;6152122;23;20519;-73
2023/07/30 05:20:50;;;;;;;3.43;1.70;;;17.40;99.90;;;;;;6151827;23;20206;-73
2023/07/30 05:23:38;;;;;;;3.33;1.80;;;17.60;99.90;;;;;;6152182;23;20197;-72
2023/07/30 05:26:25;;;;;;;6.30;1.60;;;17.60;99.90;;;;;;6151943;23;20185;-72
2023/07/30 05:29:12;;;;;;;7.53;1.87;;;17.70;99.90;;;;;;6152104;23;20234;-72
2023/07/30 05:31:59;;;;;;;5.57;1.67;;;17.90;99.90;;;;;;6152673;23;20631;-73
2023/07/30 05:34:48;;;;;;;5.93;1.83;;;18.00;99.90;;;;;;6152161;23;20206;-72
2023/07/30 05:37:35;;;;;;;6.27;1.93;;;18.10;99.90;;;;;;6151692;23;20206;-72
2023/07/30 05:40:22;;;;;;;5.57;2.37;;;18.20;99.90;;;;;;6152309;23;20188;-72
2023/07/30 05:43:09;;;;;;;7.50;2.30;;;18.30;99.90;;;;;;6151708;23;20198;-72
2023/07/30 05:45:56;;;;;;;4.10;1.90;;;18.40;99.90;;;;;;6152026;23;20185;-72
2023/07/30 05:48:44;;;;;;;4.30;1.80;;;18.50;99.90;;;;;;6151749;23;20232;-73
2023/07/30 05:51:32;;;;;;;3.63;2.47;;;18.60;99.90;;;;;;6151770;23;20182;-72
2023/07/30 05:54:19;;;;;;;2.63;1.57;;;18.60;99.90;;;;;;6151955;23;20275;-72
2023/07/30 05:57:07;;;;;;;4.40;1.40;;;18.70;99.90;;;;;;6152422;23;20243;-72
2023/07/30 05:59:54;;;;;;;2.73;1.50;;;18.70;99.90;;;;;;6150437;23;20282;-72
2023/07/30 06:02:41;;;;;;;2.30;1.23;;;18.60;99.90;;;;;;6153160;23;20196;-72
2023/07/30 06:05:28;;;;;;;5.37;1.30;;;18.70;99.90;;;;;;6153506;23;20197;-72
2023/07/30 06:08:17;;;;;;;5.87;1.60;;;18.90;99.90;;;;;;6153740;23;20183;-72
2023/07/30 06:11:04;;;;;;;7.13;1.47;;;18.90;99.90;;;;;;6153325;23;20185;-72
2023/07/30 06:13:51;;;;;;;2.23;1.50;;;19.10;99.90;;;;;;6153883;23;20629;-71
2023/07/30 06:16:38;;;;;;;3.73;1.30;;;19.30;99.90;;;;;;6153688;23;20194;-71
2023/07/30 06:19:26;;;;;;;4.53;1.40;;;19.30;99.90;;;;;;6153268;23;20178;-72
2023/07/30 06:22:13;;;;;;;2.83;1.40;;;19.40;99.90;;;;;;6152110;23;20183;-72
2023/07/30 06:25:02;;;;;;;2.63;1.50;;;19.40;99.90;;;;;;6154316;23;20186;-72
2023/07/30 06:27:49;;;;;;;5.33;1.37;;;19.60;99.90;;;;;;6153873;23;20690;-72
2023/07/30 06:30:39;;;;;;;3.03;1.20;;;19.60;99.90;;;;;;6153627;23;20182;-72
2023/07/30 06:33:26;;;;;;;2.70;1.57;;;19.30;99.90;;;;;;6151930;23;20249;-72
2023/07/30 06:36:13;;;;;;;4.53;1.57;;;19.60;99.90;;;;;;6152895;23;20218;-72
2023/07/30 06:39:00;;;;;;;4.10;1.53;;;19.80;99.90;;;;;;6149643;23;20206;-72
2023/07/30 06:41:49;;;;;;;3.27;1.43;;;19.90;99.90;;;;;;6150708;23;20186;-72
2023/07/30 06:44:36;;;;;;;4.07;1.13;;;19.90;99.90;;;;;;6151527;23;20237;-72
2023/07/30 06:47:23;;;;;;;2.03;1.20;;;19.90;99.90;;;;;;6152448;23;20186;-72
2023/07/30 06:50:10;;;;;;;5.00;1.50;;;19.60;99.90;;;;;;6151433;23;20186;-72
2023/07/30 06:52:57;;;;;;;3.40;1.60;;;19.80;99.90;;;;;;6152626;23;20182;-72
2023/07/30 06:55:45;;;;;;;3.27;1.47;;;19.90;99.90;;;;;;6152579;23;20193;-72
2023/07/30 06:58:33;;;;;;;2.10;1.33;;;20.20;99.90;;;;;;6152616;23;20191;-72
2023/07/30 07:01:20;;;;;;;5.03;1.20;;;20.40;99.90;;;;;;6152361;23;20179;-72
2023/07/30 07:04:08;;;;;;;3.23;1.30;;;20.30;99.90;;;;;;6152152;23;20205;-72
2023/07/30 07:06:55;;;;;;;4.77;1.70;;;20.60;99.90;;;;;;6152308;23;20182;-72
2023/07/30 07:09:43;;;;;;;3.37;1.20;;;20.80;99.90;;;;;;6152430;23;20182;-72
2023/07/30 07:12:30;;;;;;;1.80;1.30;;;21.00;99.90;;;;;;6152377;23;20187;-72
2023/07/30 07:15:19;;;;;;;3.70;1.30;;;21.10;99.90;;;;;;6151985;23;20170;-72
2023/07/30 07:18:06;;;;;;;1.93;1.30;;;21.20;99.90;;;;;;6152410;23;20243;-72
2023/07/30 07:20:53;;;;;;;3.27;1.50;;;21.30;99.90;;;;;;6152310;23;20627;-72
2023/07/30 07:23:40;;;;;;;1.30;1.07;;;21.20;99.90;;;;;;6152085;23;20202;-72
2023/07/30 07:26:27;;;;;;;3.00;1.77;;;21.20;99.90;;;;;;6152373;23;20182;-72
2023/07/30 07:29:14;;;;;;;2.07;1.40;;;21.10;99.90;;;;;;6152106;23;20514;-72
2023/07/30 07:32:03;;;;;;;2.73;1.60;;;21.10;99.90;;;;;;6152266;23;20179;-72
2023/07/30 07:34:50;;;;;;;2.30;1.30;;;21.20;99.90;;;;;;6152359;23;20222;-72
2023/07/30 07:37:38;;;;;;;2.00;1.30;;;21.40;99.90;;;;;;6151620;23;20553;-72
2023/07/30 07:40:25;;;;;;;1.93;1.43;;;21.40;99.90;;;;;;6152091;23;20186;-72
2023/07/30 07:43:12;;;;;;;1.80;1.40;;;21.60;99.90;;;;;;6152149;23;20183;-72
2023/07/30 07:45:59;;;;;;;2.13;1.50;;;21.80;99.90;;;;;;6151998;23;20195;-72
2023/07/30 07:48:48;;;;;;;1.83;1.60;;;21.70;99.90;;;;;;6152019;23;20183;-72
2023/07/30 07:51:35;;;;;;;4.47;1.40;;;21.80;99.90;;;;;;6152104;23;20185;-72
2023/07/30 07:54:22;;;;;;;4.73;1.70;;;22.00;99.90;;;;;;6152080;23;20206;-72
2023/07/30 07:57:10;;;;;;;2.17;1.60;;;22.00;99.90;;;;;;6151970;23;20540;-72
2023/07/30 07:59:57;;;;;;;2.40;1.77;;;22.20;99.90;;;;;;6152050;23;20213;-72
2023/07/30 08:02:44;;;;;;;3.10;1.80;;;22.30;99.90;;;;;;6152265;23;20221;-72
2023/07/30 08:05:33;;;;;;;3.73;1.87;;;22.10;99.90;;;;;;6151761;23;20182;-72
2023/07/30 08:08:20;;;;;;;2.00;1.80;;;22.30;99.90;;;;;;6151894;23;20191;-72
2023/07/30 08:11:07;;;;;;;2.83;1.77;;;22.60;99.90;;;;;;6151820;23;20187;-72
2023/07/30 08:13:55;;;;;;;2.60;1.67;;;23.00;99.90;;;;;;6152602;23;20460;-72
2023/07/30 08:16:42;;;;;;;2.77;1.80;;;23.20;99.90;;;;;;6151787;23;20186;-72
2023/07/30 08:19:29;;;;;;;3.80;1.80;;;22.80;99.90;;;;;;6151723;23;20205;-71
2023/07/30 08:22:18;;;;;;;2.88;2.05;;;22.90;99.90;;;;;;6151735;23;20190;-72
2023/07/30 08:25:06;;;;;;;2.67;1.70;;;22.80;99.90;;;;;;6151707;23;20198;-72
2023/07/30 08:27:53;;;;;;;2.03;1.80;;;23.00;99.90;;;;;;6151804;23;20182;-72
2023/07/30 08:30:40;;;;;;;2.15;1.95;;;23.10;99.90;;;;;;6151650;23;20218;-72
2023/07/30 08:33:27;;;;;;;3.42;1.60;;;23.20;99.90;;;;;;6151272;23;20645;-71
2023/07/30 08:36:14;;;;;;;3.60;2.10;;;22.80;99.90;;;;;;6151577;23;20225;-71
2023/07/30 08:39:04;;;;;;;5.93;2.45;;;23.10;99.90;;;;;;6151302;23;20233;-71
2023/07/30 08:41:51;;;;;;;6.32;2.20;;;23.80;99.90;;;;;;6151713;23;20530;-71
2023/07/30 08:44:38;;;;;;;2.20;1.77;;;24.20;99.90;;;;;;6151459;23;20198;-71
2023/07/30 08:47:27;;;;;;;2.20;1.80;;;24.20;99.90;;;;;;6151544;23;20179;-71
2023/07/30 08:50:14;;;;;;;2.45;1.95;;;23.40;99.90;;;;;;6151635;23;20178;-71
2023/07/30 08:53:02;;;;;;;4.40;2.38;;;23.40;99.90;;;;;;6151382;23;20233;-72
2023/07/30 08:55:50;;;;;;;4.95;2.33;;;23.60;99.90;;;;;;6151640;23;20309;-72
2023/07/30 08:58:37;;;;;;;3.03;1.92;;;23.60;99.90;;;;;;6151648;23;20930;-71
2023/07/30 09:01:24;;;;;;;2.97;1.70;;;24.00;99.90;;;;;;6151340;23;20271;-71
2023/07/30 09:04:12;;;;;;;2.58;2.00;;;24.30;99.90;;;;;;6150590;23;20641;-71
2023/07/30 09:07:01;;;;;;;2.25;1.90;;;24.40;99.90;;;;;;6151343;23;20189;-71
2023/07/30 09:09:48;;;;;;;2.00;1.67;;;24.60;99.90;;;;;;6151350;23;20218;-71
2023/07/30 09:12:36;;;;;;;3.17;1.90;;;24.20;99.90;;;;;;6151530;23;20182;-71
2023/07/30 09:15:31;;;;;;;5.97;2.03;;;24.40;99.90;;;;;;6151367;23;20174;-71
2023/07/30 09:18:18;;;;;;;2.35;1.83;;;24.00;99.90;;;;;;6151436;23;20685;-71
2023/07/30 09:21:05;;;;;;;2.78;1.70;;;24.40;99.90;;;;;;6151538;23;20757;-72
2023/07/30 09:23:52;;;;;;;3.15;1.80;;;24.30;99.90;;;;;;6151036;23;20230;-71
2023/07/30 09:26:46;;;;;;;3.70;1.63;;;24.00;99.90;;;;;;6151125;23;20705;-70
2023/07/30 09:29:35;;;;;;;5.13;1.80;;;24.00;99.90;;;;;;6150866;23;20186;-71
2023/07/30 09:32:26;;;;;;;3.38;2.20;;;24.10;99.90;;;;;;6151081;23;20179;-71
2023/07/30 09:35:13;;;;;;;7.18;2.10;;;23.30;99.90;;;;;;6151252;23;20183;-71
2023/07/30 09:38:01;;;;;;;4.30;1.88;;;23.20;99.90;;;;;;6151923;23;20210;-71
2023/07/30 09:40:50;;;;;;;6.80;2.00;;;23.50;99.90;;;;;;6152906;23;20185;-71
2023/07/30 09:43:37;;;;;;;2.85;1.88;;;24.00;99.90;;;;;;6152750;23;20182;-71
2023/07/30 09:46:26;;;;;;;2.53;2.00;;;23.60;99.90;;;;;;6153105;23;20182;-71
2023/07/30 09:49:13;;;;;;;3.58;1.65;;;23.50;99.90;;;;;;6152056;23;20183;-71
2023/07/30 09:52:00;;;;;;;2.72;1.90;;;23.60;99.90;;;;;;6152794;23;20186;-71
2023/07/30 09:54:49;;;;;;;3.40;1.73;;;23.40;99.90;;;;;;6151797;23;20225;-72
2023/07/30 09:57:36;;;;;;;2.28;1.90;;;23.50;99.90;;;;;;6150846;23;20775;-72
2023/07/30 10:00:24;;;;;;;2.05;1.77;;;23.70;99.90;;;;;;6151248;23;20179;-72
2023/07/30 10:03:12;;;;;;;3.88;2.03;;;23.70;99.90;;;;;;6147918;23;20178;-72
2023/07/30 10:06:03;;;;;;;3.47;2.30;;;24.20;99.90;;;;;;5376862;23;656595;-72
2023/07/30 10:08:50;;;;;;;7.13;2.35;;;24.50;99.90;;;;;;5344868;23;657102;-71
2023/07/30 10:11:37;;;;;;;3.08;1.85;;;24.60;99.90;;;;;;5355167;23;656645;-72
2023/07/30 10:14:25;;;;;;;2.75;1.85;;;24.50;99.90;;;;;;5374208;23;657890;-71
2023/07/30 10:17:12;;;;;;;5.57;2.13;;;24.30;99.90;;;;;;5367625;23;656393;-72
2023/07/30 10:20:16;;;;;;;6.18;2.17;;;24.80;99.90;;;;;;5380372;23;656213;-72
2023/07/30 10:23:04;;;;;;;5.60;1.95;;;25.20;99.90;;;;;;5352414;23;657024;-72
2023/07/30 10:25:53;;;;;;;3.72;1.80;;;24.90;99.90;;;;;;5371590;23;656199;-72
2023/07/30 10:28:43;;;;;;;3.53;1.98;;;24.50;99.90;;;;;;5352075;23;657392;-72
2023/07/30 10:31:39;;;;;;;2.38;1.70;;;24.20;99.90;;;;;;5347555;23;656832;-71
2023/07/30 10:34:27;;;;;;;1.80;1.63;;;24.50;99.90;;;;;;5346585;23;657130;-72
2023/07/30 10:37:20;;;;;;;2.72;1.90;;;24.60;99.90;;;;;;5347807;23;658039;-72
2023/07/30 10:40:18;;;;;;;4.35;2.00;;;24.30;99.90;;;;;;5347635;23;656670;-72
2023/07/30 10:43:09;;;;;;;2.03;1.67;;;24.10;99.90;;;;;;5346643;23;657359;-72
2023/07/30 10:45:56;;;;;;;2.45;1.95;;;24.40;99.90;;;;;;5346793;23;657478;-71
2023/07/30 10:48:44;;;;;;;2.22;1.80;;;24.80;99.90;;;;;;5352327;23;656535;-72
2023/07/30 10:51:31;;;;;;;3.63;1.98;;;24.80;99.90;;;;;;5374347;23;656594;-72
2023/07/30 10:54:20;;;;;;;2.53;1.95;;;24.90;99.90;;;;;;5352100;23;657378;-72
2023/07/30 10:57:08;;;;;;;2.50;1.83;;;25.30;99.90;;;;;;5365972;23;656645;-72
2023/07/30 10:59:56;;;;;;;5.68;1.77;;;24.90;99.90;;;;;;5375002;23;657212;-72
2023/07/30 11:02:43;;;;;;;3.70;1.70;;;24.50;99.90;;;;;;5351039;23;656719;-72
2023/07/30 11:05:30;;;;;;;2.30;1.92;;;23.90;99.90;;;;;;5378903;23;657271;-72
2023/07/30 11:08:18;;;;;;;2.50;1.95;;;24.20;99.90;;;;;;5350992;23;656866;-72
2023/07/30 11:11:07;;;;;;;2.78;1.58;;;24.40;99.90;;;;;;5374727;23;658010;-72
2023/07/30 11:13:54;;;;;;;4.53;2.08;;;24.70;99.90;;;;;;5346924;23;657830;-72
2023/07/30 11:16:48;;;;;;;2.00;1.80;;;24.80;99.90;;;;;;5626418;23;656448;-71
2023/07/30 11:19:35;;;;;;;3.22;2.10;;;25.10;99.90;;;;;;6148569;23;20183;-72
2023/07/30 11:22:30;;;;;;;3.10;2.13;;;24.00;99.90;;;;;;6147803;23;20178;-72
2023/07/30 11:25:17;;;;;;;5.70;1.92;;;24.30;99.90;;;;;;6148298;23;20629;-71
2023/07/30 11:28:06;;;;;;;3.10;1.75;;;24.60;99.90;;;;;;6148883;23;20666;-71
2023/07/30 11:30:53;;;;;;;3.13;1.60;;;24.60;99.90;;;;;;6148695;23;20187;-71
2023/07/30 11:33:42;;;;;;;8.48;1.75;;;24.70;99.90;;;;;;6151494;23;20253;-72
2023/07/30 11:36:29;;;;;;;3.75;2.00;;;24.60;99.90;;;;;;6151760;23;20186;-72
2023/07/30 11:39:17;;;;;;;3.97;2.05;;;24.30;99.90;;;;;;6150099;23;20253;-72
2023/07/30 11:42:04;;;;;;;2.97;1.90;;;24.40;99.90;;;;;;6150943;23;20178;-72
2023/07/30 11:44:53;;;;;;;2.60;1.98;;;24.70;99.90;;;;;;6150812;23;20229;-72
2023/07/30 11:47:40;;;;;;;4.20;2.15;;;24.90;99.90;;;;;;6150402;23;20182;-72
2023/07/30 11:50:27;;;;;;;5.45;1.92;;;24.90;99.90;;;;;;6150235;23;20580;-72
2023/07/30 11:53:14;;;;;;;2.40;1.90;;;24.80;99.90;;;;;;6150697;23;20201;-72
2023/07/30 11:56:01;;;;;;;2.97;1.90;;;24.80;99.90;;;;;;6150724;23;20211;-72
2023/07/30 11:58:49;;;;;;;3.20;2.17;;;24.40;99.90;;;;;;6150448;23;20190;-72
2023/07/30 12:01:37;;;;;;;2.67;1.98;;;23.70;99.90;;;;;;6149860;23;20626;-72
2023/07/30 12:04:25;;;;;;;3.83;1.90;;;23.70;99.90;;;;;;6148810;23;20256;-72
2023/07/30 12:07:12;;;;;;;2.63;2.05;;;23.80;99.90;;;;;;6150465;23;20306;-72
2023/07/30 12:10:08;;;;;;;3.30;2.10;;;23.80;99.90;;;;;;6148870;23;20186;-72
2023/07/30 12:12:55;;;;;;;5.13;2.00;;;24.00;99.90;;;;;;6148430;23;20194;-72
2023/07/30 12:15:44;;;;;;;2.22;2.03;;;23.70;99.90;;;;;;6146323;23;20186;-72
2023/07/30 12:18:33;;;;;;;9.52;1.85;;;23.80;99.90;;;;;;5463166;23;555583;-73
2023/07/30 12:21:20;;;;;;;2.83;2.13;;;24.00;99.90;;;;;;5345219;23;657654;-72
2023/07/30 12:24:08;;;;;;;2.22;1.98;;;24.20;99.90;;;;;;5351080;23;656552;-72
2023/07/30 12:26:55;;;;;;;2.72;1.90;;;24.30;99.90;;;;;;5373583;23;657562;-72
2023/07/30 12:29:44;;;;;;;3.08;1.92;;;24.10;99.90;;;;;;5362920;23;656899;-72
2023/07/30 12:32:31;;;;;;;5.30;1.98;;;24.20;99.90;;;;;;5580341;23;657200;-72
2023/07/30 12:35:19;;;;;;;4.18;2.00;;;24.30;99.90;;;;;;6149468;23;20210;-72
2023/07/30 12:38:06;;;;;;;2.70;2.00;;;23.80;99.90;;;;;;6150149;23;20210;-72
2023/07/30 12:40:54;;;;;;;3.60;2.00;;;23.70;99.90;;;;;;6149661;23;20185;-72
2023/07/30 12:43:41;;;;;;;2.40;1.80;;;23.60;99.90;;;;;;6150373;23;20262;-72
2023/07/30 12:46:29;;;;;;;2.95;2.38;;;23.40;99.90;;;;;;6150750;23;20182;-72
2023/07/30 12:49:17;;;;;;;2.60;1.88;;;23.50;99.90;;;;;;6150245;23;20190;-72
2023/07/30 12:52:06;;;;;;;4.95;2.08;;;23.60;99.90;;;;;;6150453;23;20187;-71
2023/07/30 12:54:53;;;;;;;3.38;2.25;;;23.50;99.90;;;;;;6150251;23;20210;-72
2023/07/30 12:57:41;;;;;;;2.65;2.17;;;23.70;99.90;;;;;;6150153;23;20267;-72
2023/07/30 13:00:28;;;;;;;3.60;2.15;;;23.40;99.90;;;;;;6150881;23;20197;-72
2023/07/30 13:03:16;;;;;;;5.05;2.10;;;23.40;99.90;;;;;;6149351;23;20189;-72
2023/07/30 13:06:03;;;;;;;7.07;2.08;;;23.40;99.90;;;;;;6151305;23;20210;-72
2023/07/30 13:08:53;;;;;;;2.63;2.00;;;23.20;99.90;;;;;;6150486;23;20182;-72
2023/07/30 13:11:40;;;;;;;2.60;2.00;;;23.30;99.90;;;;;;6150542;23;20190;-72
2023/07/30 13:14:27;;;;;;;3.63;2.00;;;23.20;99.90;;;;;;6152398;23;20205;-72
2023/07/30 13:17:15;;;;;;;6.30;2.50;;;23.10;99.90;;;;;;6152281;23;20188;-72
2023/07/30 13:20:02;;;;;;;3.97;2.00;;;23.20;99.90;;;;;;6152370;23;20596;-73
2023/07/30 13:22:50;;;;;;;3.70;2.25;;;23.20;99.90;;;;;;6151593;23;20649;-72
2023/07/30 13:25:39;;;;;;;2.22;1.95;;;23.10;99.90;;;;;;6151832;23;20190;-72
2023/07/30 13:28:26;;;;;;;3.63;1.90;;;23.20;99.90;;;;;;6152212;23;20190;-72
2023/07/30 13:31:13;;;;;;;2.45;1.90;;;23.40;99.90;;;;;;6152048;23;20269;-72
2023/07/30 13:34:01;;;;;;;2.85;1.95;;;23.30;99.90;;;;;;6151553;23;20199;-73
2023/07/30 13:36:48;;;;;;;2.72;2.03;;;23.40;99.90;;;;;;6151718;23;20205;-72
2023/07/30 13:39:35;;;;;;;2.92;1.92;;;23.30;99.90;;;;;;6150506;23;20272;-72
2023/07/30 13:42:24;;;;;;;3.22;2.20;;;23.30;99.90;;;;;;6152237;23;20186;-72
2023/07/30 13:45:11;;;;;;;2.92;2.30;;;23.30;99.90;;;;;;6152078;23;20210;-72
2023/07/30 13:47:58;;;;;;;3.38;2.15;;;23.30;99.90;;;;;;6151445;23;20183;-72
2023/07/30 13:50:45;;;;;;;5.65;2.30;;;23.40;99.90;;;;;;6152025;23;20321;-72
2023/07/30 13:53:34;;;;;;;3.10;2.00;;;23.40;99.90;;;;;;6152012;23;20611;-72
2023/07/30 13:56:21;;;;;;;2.97;2.27;;;23.00;99.90;;;;;;6151533;23;20633;-72
2023/07/30 13:59:10;;;;;;;4.73;2.33;;;23.00;99.90;;;;;;6151567;23;20186;-72
2023/07/30 14:01:57;;;;;;;3.47;2.13;;;23.20;99.90;;;;;;6151523;23;20221;-72
2023/07/30 14:04:44;;;;;;;4.13;2.05;;;23.40;99.90;;;;;;6151670;23;20179;-72
2023/07/30 14:07:32;;;;;;;4.40;2.10;;;23.40;99.90;;;;;;6151651;23;20287;-72
2023/07/30 14:10:19;;;;;;;1.95;1.77;;;23.50;99.90;;;;;;6151873;23;20182;-72
2023/07/30 14:13:06;;;;;;;1.92;1.63;;;23.50;99.90;;;;;;6151640;23;20197;-72
2023/07/30 14:15:55;;;;;;;2.65;1.95;;;23.40;99.90;;;;;;6150021;23;20209;-72
2023/07/30 14:18:42;;;;;;;3.25;1.92;;;23.40;99.90;;;;;;6151605;23;20186;-72
2023/07/30 14:21:30;;;;;;;4.10;2.17;;;23.60;99.90;;;;;;6151314;23;20322;-72
2023/07/30 14:24:17;;;;;;;2.88;1.90;;;23.90;99.90;;;;;;6151244;23;20185;-72
2023/07/30 14:27:05;;;;;;;2.20;1.80;;;24.00;99.90;;;;;;6151838;23;20272;-71
2023/07/30 14:29:52;;;;;;;2.60;1.80;;;24.50;99.90;;;;;;6151134;23;20226;-71
2023/07/30 14:32:41;;;;;;;2.47;1.90;;;24.90;99.90;;;;;;6151337;23;20241;-72